Time;durP1;ratioP1;P1;durP2;ratioP2;P2;SDS_P1;SDS_P2;PMS_P1;PMS_P2;Temp;Humidity;BMP_temperature;BMP_pressure;BME280_temperature;BME280_humidity;BME280_pressure;Samples;Min_cycle;Max_cycle;Signal;HPM_P1;HPM_P2
2023/12/01 00:00:18;;;;;;;136.73;49.70;;;-1.90;99.90;;;;;;4995898;28;20077;-89
2023/12/01 00:02:44;;;;;;;146.65;50.35;;;-1.80;99.90;;;;;;5011642;28;20069;-88
2023/12/01 00:05:10;;;;;;;140.48;51.33;;;-1.80;99.90;;;;;;4979269;28;20034;-88
2023/12/01 00:07:37;;;;;;;148.70;50.50;;;-1.70;99.90;;;;;;4996286;28;20061;-89
2023/12/01 00:10:04;;;;;;;135.55;48.83;;;-1.70;99.90;;;;;;4979936;28;20037;-88
2023/12/01 00:12:29;;;;;;;133.57;46.92;;;-1.60;99.90;;;;;;4994107;28;20037;-89
2023/12/01 00:14:55;;;;;;;124.28;44.78;;;-1.60;99.90;;;;;;4997874;28;20030;-89
2023/12/01 00:17:21;;;;;;;126.47;43.22;;;-1.60;99.90;;;;;;4997876;28;20041;-88
2023/12/01 00:19:47;;;;;;;129.57;41.28;;;-1.60;99.90;;;;;;4997336;28;20120;-88
2023/12/01 00:22:13;;;;;;;110.97;40.65;;;-1.60;99.90;;;;;;4997379;28;20042;-88
2023/12/01 00:24:38;;;;;;;138.82;48.53;;;-1.50;99.90;;;;;;5015074;28;20062;-88
2023/12/01 00:27:04;;;;;;;126.60;44.70;;;-1.40;99.90;;;;;;4998558;28;20064;-88
2023/12/01 00:29:30;;;;;;;129.13;44.42;;;-1.40;99.90;;;;;;4998733;28;20481;-88
2023/12/01 00:31:55;;;;;;;131.10;46.47;;;-1.30;99.90;;;;;;4998115;28;20113;-88
2023/12/01 00:34:21;;;;;;;127.47;44.50;;;-1.30;99.90;;;;;;4998116;28;20118;-89
2023/12/01 00:36:47;;;;;;;120.28;43.38;;;-1.30;99.90;;;;;;4999790;28;20038;-89
2023/12/01 00:39:47;;;;;;;139.43;46.55;;;-1.20;99.90;;;;;;4998741;28;20025;-88
2023/12/01 00:42:13;;;;;;;203.90;65.40;;;-1.20;99.90;;;;;;5015993;28;20108;-88
2023/12/01 00:44:39;;;;;;;151.02;53.00;;;-1.20;99.90;;;;;;5014857;28;20486;-88
2023/12/01 00:47:05;;;;;;;172.95;58.17;;;-1.20;99.90;;;;;;4998473;28;20053;-88
2023/12/01 00:49:31;;;;;;;164.95;56.85;;;-1.20;99.90;;;;;;4998663;28;20532;-88
2023/12/01 00:52:51;;;;;;;140.23;50.22;;;-1.20;99.90;;;;;;5014009;28;20083;-88
2023/12/01 00:55:16;;;;;;;131.48;47.20;;;-1.20;99.90;;;;;;4997497;28;20032;-88
2023/12/01 00:57:42;;;;;;;131.98;51.38;;;-1.20;99.90;;;;;;4997829;28;20026;-88
2023/12/01 01:00:08;;;;;;;118.97;41.28;;;-1.20;99.90;;;;;;5014226;28;20026;-88
2023/12/01 01:02:34;;;;;;;112.72;41.38;;;-1.20;99.90;;;;;;5013787;28;20544;-88
2023/12/01 01:05:00;;;;;;;114.50;40.97;;;-1.10;99.90;;;;;;4997921;28;20033;-88
2023/12/01 01:07:26;;;;;;;103.75;38.67;;;-1.10;99.90;;;;;;4997960;28;20052;-88
2023/12/01 01:09:52;;;;;;;108.20;39.20;;;-1.10;99.90;;;;;;5014531;28;20026;-88
2023/12/01 01:12:18;;;;;;;104.30;38.10;;;-1.00;99.90;;;;;;4998616;28;20030;-87
2023/12/01 01:14:43;;;;;;;108.22;38.88;;;-1.00;99.90;;;;;;5014159;28;20041;-88
2023/12/01 01:17:15;;;;;;;120.45;41.47;;;-1.00;99.90;;;;;;4998102;28;20037;-88
2023/12/01 01:19:41;;;;;;;112.53;40.08;;;-1.00;99.90;;;;;;4998301;28;20396;-88
2023/12/01 01:22:19;;;;;;;110.97;40.22;;;-0.90;99.90;;;;;;4997788;28;20025;-88
2023/12/01 01:24:45;;;;;;;105.82;40.17;;;-0.90;99.90;;;;;;4997884;28;20481;-89
2023/12/01 01:27:11;;;;;;;121.30;40.97;;;-1.00;99.90;;;;;;4997712;28;20095;-88
2023/12/01 01:29:37;;;;;;;114.63;40.35;;;-1.00;99.90;;;;;;4997795;28;20030;-88
2023/12/01 01:32:03;;;;;;;122.30;43.70;;;-0.90;99.90;;;;;;4997535;28;20132;-88
2023/12/01 01:34:30;;;;;;;115.38;41.88;;;-0.90;99.90;;;;;;5013410;28;20520;-88
2023/12/01 01:36:56;;;;;;;112.43;39.88;;;-0.90;99.90;;;;;;4998382;28;20129;-88
2023/12/01 01:39:22;;;;;;;113.35;42.10;;;-0.80;99.90;;;;;;4997525;28;20775;-88
2023/12/01 01:41:48;;;;;;;113.00;39.55;;;-0.80;99.90;;;;;;4997504;28;20128;-88
2023/12/01 01:44:13;;;;;;;100.75;37.60;;;-0.80;99.90;;;;;;4998177;28;20068;-88
2023/12/01 01:46:39;;;;;;;89.25;32.70;;;-0.70;99.90;;;;;;5013946;28;20544;-88
2023/12/01 01:49:05;;;;;;;98.05;34.20;;;-0.70;99.90;;;;;;4997710;28;20069;-88
2023/12/01 01:51:34;;;;;;;88.63;31.55;;;-0.80;99.90;;;;;;4997770;28;20477;-88
2023/12/01 01:54:00;;;;;;;88.53;30.98;;;-0.80;99.90;;;;;;5000976;28;20030;-87
2023/12/01 01:56:28;;;;;;;86.40;33.20;;;-0.70;99.90;;;;;;5017735;28;20030;-88
2023/12/01 01:58:54;;;;;;;90.03;31.80;;;-0.70;99.90;;;;;;5001556;28;20034;-88
2023/12/01 02:01:20;;;;;;;77.55;30.10;;;-0.70;99.90;;;;;;5018091;28;20030;-88
2023/12/01 02:03:46;;;;;;;86.13;31.60;;;-0.70;99.90;;;;;;5001500;28;20033;-88
2023/12/01 02:06:12;;;;;;;99.50;34.45;;;-0.70;99.90;;;;;;5017508;28;20032;-89
2023/12/01 02:08:39;;;;;;;97.80;35.83;;;-0.70;99.90;;;;;;5000763;28;20428;-88
2023/12/01 02:11:05;;;;;;;97.82;33.92;;;-0.70;99.90;;;;;;5001612;28;20045;-88
2023/12/01 02:13:31;;;;;;;100.43;37.20;;;-0.70;99.90;;;;;;5000808;28;20037;-88
2023/12/01 02:15:59;;;;;;;102.90;38.30;;;-0.60;99.90;;;;;;5001266;28;20370;-88
2023/12/01 02:18:29;;;;;;;115.90;40.42;;;-0.70;99.90;;;;;;5001044;28;20497;-88
2023/12/01 02:20:59;;;;;;;110.82;41.53;;;-0.70;99.90;;;;;;5001260;28;20030;-88
2023/12/01 02:23:26;;;;;;;107.05;41.15;;;-0.60;99.90;;;;;;5001192;28;20122;-88
2023/12/01 02:25:52;;;;;;;111.20;41.17;;;-0.60;99.90;;;;;;5001063;28;20037;-87
2023/12/01 02:28:36;;;;;;;119.20;41.28;;;-0.60;99.90;;;;;;5001167;28;20030;-88
2023/12/01 02:31:02;;;;;;;105.70;40.72;;;-0.60;99.90;;;;;;5016605;28;20029;-88
2023/12/01 02:33:27;;;;;;;109.53;39.50;;;-0.60;99.90;;;;;;5000417;28;20095;-89
2023/12/01 02:35:53;;;;;;;100.88;37.50;;;-0.50;99.90;;;;;;5009182;28;20026;-88
2023/12/01 02:38:20;;;;;;;109.30;37.20;;;-0.50;99.90;;;;;;5002858;28;20033;-88
2023/12/01 02:40:49;;;;;;;96.55;36.67;;;-0.50;99.90;;;;;;5000490;28;20080;-88
2023/12/01 02:43:19;;;;;;;114.60;40.13;;;-0.50;99.90;;;;;;5000484;28;20557;-89
2023/12/01 02:45:45;;;;;;;113.70;39.40;;;-0.60;99.90;;;;;;5000692;28;20034;-89
2023/12/01 02:48:11;;;;;;;114.53;38.42;;;-0.60;99.90;;;;;;5016688;28;20029;-88
2023/12/01 02:50:49;;;;;;;116.65;42.13;;;-0.60;99.90;;;;;;5016531;28;20037;-88
2023/12/01 02:53:15;;;;;;;120.68;42.50;;;-0.60;99.90;;;;;;5000357;28;20041;-88
2023/12/01 02:55:42;;;;;;;139.60;45.30;;;-0.50;99.90;;;;;;5017003;28;20072;-89
2023/12/01 02:58:08;;;;;;;130.80;43.47;;;-0.50;99.90;;;;;;5000426;28;20046;-89
2023/12/01 03:00:35;;;;;;;122.63;42.60;;;-0.50;99.90;;;;;;5000991;28;20057;-88
2023/12/01 03:03:03;;;;;;;109.80;40.38;;;-0.50;99.90;;;;;;4999336;28;20088;-88
2023/12/01 03:05:29;;;;;;;156.73;55.88;;;-0.50;99.90;;;;;;4999548;28;20088;-89
2023/12/01 03:07:55;;;;;;;126.57;44.60;;;-0.40;99.90;;;;;;4999839;28;20069;-88
2023/12/01 03:10:20;;;;;;;103.07;38.00;;;-0.50;99.90;;;;;;5017342;28;20022;-89
2023/12/01 03:12:46;;;;;;;124.78;44.58;;;-0.50;99.90;;;;;;4999484;28;20029;-89
2023/12/01 03:15:19;;;;;;;106.43;41.88;;;-0.50;99.90;;;;;;4999540;28;20041;-89
2023/12/01 03:17:47;;;;;;;114.13;42.85;;;-0.50;99.90;;;;;;4999637;28;20053;-89
2023/12/01 03:20:14;;;;;;;105.10;38.80;;;-0.50;99.90;;;;;;5015695;28;20022;-89
2023/12/01 03:22:50;;;;;;;98.80;37.47;;;-0.40;99.90;;;;;;4998304;28;20492;-89
2023/12/01 03:25:16;;;;;;;111.03;41.22;;;-0.50;99.90;;;;;;4999218;28;20026;-89
2023/12/01 03:27:42;;;;;;;84.95;35.15;;;-0.50;99.90;;;;;;4998576;28;20169;-89
2023/12/01 03:30:13;;;;;;;96.40;35.50;;;-0.50;99.90;;;;;;4999192;28;20034;-89
2023/12/01 03:32:59;;;;;;;101.43;36.67;;;-0.40;99.90;;;;;;4999446;28;20817;-89
2023/12/01 03:35:25;;;;;;;106.82;38.63;;;-0.50;99.90;;;;;;4999401;28;20482;-89
2023/12/01 03:37:55;;;;;;;108.65;44.30;;;-0.50;99.90;;;;;;4999107;28;20034;-88
2023/12/01 03:40:22;;;;;;;123.40;45.30;;;-0.40;99.90;;;;;;4999581;28;20033;-89
2023/12/01 03:42:49;;;;;;;127.10;45.72;;;-0.40;99.90;;;;;;4998895;28;20041;-89
2023/12/01 03:45:16;;;;;;;111.20;43.80;;;-0.40;99.90;;;;;;4999659;28;20038;-89
2023/12/01 03:47:46;;;;;;;123.72;42.80;;;-0.40;99.90;;;;;;4999974;28;20354;-89
2023/12/01 03:50:12;;;;;;;130.27;51.07;;;-0.40;99.90;;;;;;4999260;28;20026;-88
2023/12/01 03:52:42;;;;;;;105.38;41.60;;;-0.40;99.90;;;;;;4999095;28;20713;-88
2023/12/01 03:55:09;;;;;;;128.52;46.80;;;-0.40;99.90;;;;;;5015000;28;20056;-88
2023/12/01 03:57:35;;;;;;;125.63;48.78;;;-0.40;99.90;;;;;;4999009;28;20113;-89
2023/12/01 04:00:03;;;;;;;115.05;45.67;;;-0.40;99.90;;;;;;4998880;28;20057;-87
2023/12/01 04:02:40;;;;;;;112.18;47.03;;;-0.40;99.90;;;;;;5015207;28;20064;-89
2023/12/01 04:05:07;;;;;;;107.15;43.53;;;-0.40;99.90;;;;;;4998460;28;20569;-90
2023/12/01 04:07:34;;;;;;;111.93;43.63;;;-0.40;99.90;;;;;;5015556;28;20068;-89
2023/12/01 04:10:00;;;;;;;105.43;41.85;;;-0.40;99.90;;;;;;4998862;28;20029;-89
2023/12/01 04:12:26;;;;;;;113.20;45.20;;;-0.40;99.90;;;;;;4999652;28;20044;-89
2023/12/01 04:14:51;;;;;;;109.93;45.22;;;-0.40;99.90;;;;;;5014538;28;20393;-89
2023/12/01 04:17:18;;;;;;;128.43;49.03;;;-0.40;99.90;;;;;;4998781;28;20722;-89
2023/12/01 04:19:43;;;;;;;124.45;48.05;;;-0.40;99.90;;;;;;4999011;28;20021;-89
2023/12/01 04:22:09;;;;;;;121.78;46.42;;;-0.40;99.90;;;;;;5014844;28;20038;-89
2023/12/01 04:24:35;;;;;;;130.60;48.28;;;-0.40;99.90;;;;;;5014475;28;20030;-89
2023/12/01 04:27:02;;;;;;;109.15;44.15;;;-0.40;99.90;;;;;;4994082;28;20501;-90
2023/12/01 04:29:31;;;;;;;114.53;44.38;;;-0.40;99.90;;;;;;4996307;28;20734;-87
2023/12/01 04:31:57;;;;;;;120.20;44.25;;;-0.50;99.90;;;;;;4997608;28;20026;-87
2023/12/01 04:34:26;;;;;;;112.43;41.83;;;-0.50;99.90;;;;;;4999607;28;20034;-87
2023/12/01 04:36:53;;;;;;;103.65;41.85;;;-0.50;99.90;;;;;;4999962;28;20121;-88
2023/12/01 04:39:59;;;;;;;106.68;41.13;;;-0.50;99.90;;;;;;4998295;28;20748;-88
2023/12/01 04:42:25;;;;;;;101.97;40.50;;;-0.50;99.90;;;;;;5011949;28;20033;-89
2023/12/01 04:44:51;;;;;;;102.28;40.72;;;-0.50;99.90;;;;;;5013258;28;20092;-88
2023/12/01 04:47:16;;;;;;;103.30;42.55;;;-0.50;99.90;;;;;;5013367;28;20393;-88
2023/12/01 04:49:42;;;;;;;106.25;40.63;;;-0.50;99.90;;;;;;4997719;28;20080;-88
2023/12/01 04:52:07;;;;;;;115.47;45.35;;;-0.50;99.90;;;;;;4998008;28;20033;-88
2023/12/01 04:54:33;;;;;;;119.65;48.55;;;-0.50;99.90;;;;;;5014605;28;20033;-88
2023/12/01 04:56:59;;;;;;;118.88;48.50;;;-0.50;99.90;;;;;;4997716;28;20073;-88
2023/12/01 04:59:54;;;;;;;127.40;49.10;;;-0.50;99.90;;;;;;5013339;28;20060;-88
2023/12/01 05:02:20;;;;;;;130.38;49.08;;;-0.50;99.90;;;;;;5013906;28;20045;-88
2023/12/01 05:04:47;;;;;;;129.32;49.22;;;-0.50;99.90;;;;;;4998179;28;20026;-88
2023/12/01 05:07:13;;;;;;;131.85;50.00;;;-0.50;99.90;;;;;;5013640;28;20121;-88
2023/12/01 05:09:38;;;;;;;135.98;53.63;;;-0.50;99.90;;;;;;4997836;28;20072;-89
2023/12/01 05:12:05;;;;;;;133.77;54.05;;;-0.50;99.90;;;;;;4998026;28;20045;-88
2023/12/01 05:14:31;;;;;;;150.57;53.28;;;-0.50;99.90;;;;;;4997403;28;20033;-88
2023/12/01 05:16:57;;;;;;;155.88;56.60;;;-0.50;99.90;;;;;;4997232;28;20041;-87
2023/12/01 05:19:22;;;;;;;142.05;53.97;;;-0.50;99.90;;;;;;4997334;28;20033;-88
2023/12/01 05:21:48;;;;;;;121.50;48.33;;;-0.50;99.90;;;;;;4998036;28;20029;-88
2023/12/01 05:24:14;;;;;;;143.02;53.47;;;-0.50;99.90;;;;;;4997714;28;20113;-89
2023/12/01 05:26:39;;;;;;;113.95;46.42;;;-0.50;99.90;;;;;;5013386;28;20042;-88
2023/12/01 05:29:12;;;;;;;119.63;44.72;;;-0.50;99.90;;;;;;4994307;28;20052;-89
2023/12/01 05:31:39;;;;;;;107.63;41.40;;;-0.50;99.90;;;;;;5014038;28;20014;-89
2023/12/01 05:34:05;;;;;;;128.85;48.90;;;-0.50;99.90;;;;;;5014129;28;20041;-88
2023/12/01 05:36:31;;;;;;;123.50;48.22;;;-0.50;99.90;;;;;;5013676;28;20033;-88
2023/12/01 05:38:57;;;;;;;137.48;52.30;;;-0.50;99.90;;;;;;4997120;28;20442;-88
2023/12/01 05:41:23;;;;;;;122.93;48.42;;;-0.50;99.90;;;;;;4997639;28;20054;-88
2023/12/01 05:43:48;;;;;;;131.98;50.92;;;-0.60;99.90;;;;;;5014073;28;20041;-88
2023/12/01 05:46:14;;;;;;;124.90;49.63;;;-0.60;99.90;;;;;;5014079;28;20101;-88
2023/12/01 05:48:41;;;;;;;151.52;52.78;;;-0.60;99.90;;;;;;4997429;28;20081;-88
2023/12/01 05:51:07;;;;;;;144.80;55.20;;;-0.60;99.90;;;;;;4998043;28;20034;-88
2023/12/01 05:53:34;;;;;;;135.38;53.42;;;-0.60;99.90;;;;;;4997814;28;20397;-88
2023/12/01 05:56:07;;;;;;;130.88;54.97;;;-0.60;99.90;;;;;;4997983;28;20033;-88
2023/12/01 05:58:32;;;;;;;138.43;53.60;;;-0.60;99.90;;;;;;5020493;28;20022;-88
2023/12/01 06:00:58;;;;;;;129.07;53.03;;;-0.60;99.90;;;;;;4997592;28;20032;-88
2023/12/01 06:03:24;;;;;;;128.90;51.80;;;-0.60;99.90;;;;;;4997377;28;20066;-89
2023/12/01 06:05:49;;;;;;;122.03;51.08;;;-0.70;99.90;;;;;;5013815;28;20045;-88
2023/12/01 06:08:15;;;;;;;124.03;50.85;;;-0.70;99.90;;;;;;5013221;28;20822;-88
2023/12/01 06:10:41;;;;;;;135.75;53.75;;;-0.70;99.90;;;;;;4997120;28;20030;-88
2023/12/01 06:13:07;;;;;;;142.27;54.70;;;-0.70;99.90;;;;;;4997612;28;20532;-88
2023/12/01 06:15:32;;;;;;;126.72;50.17;;;-0.70;99.90;;;;;;5013433;28;20097;-88
2023/12/01 06:18:00;;;;;;;131.75;50.67;;;-0.70;99.90;;;;;;4996812;28;20018;-88
2023/12/01 06:20:26;;;;;;;129.43;48.90;;;-0.70;99.90;;;;;;5015085;28;20079;-88
2023/12/01 06:23:00;;;;;;;117.78;47.70;;;-0.70;99.90;;;;;;5012901;28;20105;-89
2023/12/01 06:26:15;;;;;;;114.35;44.15;;;-0.80;99.90;;;;;;4995805;28;20429;-89
2023/12/01 06:28:41;;;;;;;110.10;42.83;;;-0.80;99.90;;;;;;4997124;28;20071;-88
2023/12/01 06:31:08;;;;;;;105.38;41.83;;;-0.70;99.90;;;;;;5000324;28;20140;-87
2023/12/01 06:33:34;;;;;;;107.95;42.22;;;-0.80;99.90;;;;;;4996325;28;20046;-88
2023/12/01 06:35:59;;;;;;;114.65;43.13;;;-0.70;99.90;;;;;;4996482;28;20048;-89
2023/12/01 06:38:25;;;;;;;107.65;41.28;;;-0.70;99.90;;;;;;4997245;28;20026;-88
2023/12/01 06:40:51;;;;;;;127.63;43.88;;;-0.70;99.90;;;;;;5001810;28;20034;-88
2023/12/01 06:43:18;;;;;;;103.38;41.05;;;-0.70;99.90;;;;;;5016701;28;20034;-88
2023/12/01 06:45:44;;;;;;;103.28;42.90;;;-0.70;99.90;;;;;;5016960;28;20617;-89
2023/12/01 06:48:10;;;;;;;110.25;42.17;;;-0.80;99.90;;;;;;5016537;28;20026;-88
2023/12/01 06:50:36;;;;;;;109.43;41.60;;;-0.70;99.90;;;;;;5001679;28;20045;-89
2023/12/01 06:53:02;;;;;;;109.68;42.90;;;-0.70;99.90;;;;;;5016168;28;20034;-88
2023/12/01 06:55:28;;;;;;;115.70;42.85;;;-0.70;99.90;;;;;;5003650;28;20105;-89
2023/12/01 06:57:54;;;;;;;113.05;42.40;;;-0.70;99.90;;;;;;4999536;28;20041;-88
2023/12/01 07:00:33;;;;;;;111.82;41.03;;;-0.70;99.90;;;;;;5014213;28;20057;-85
2023/12/01 07:03:04;;;;;;;112.93;40.67;;;-0.70;99.90;;;;;;5013877;28;20030;-85
2023/12/01 07:05:31;;;;;;;109.10;40.33;;;-0.80;99.90;;;;;;5001147;28;20060;-85
2023/12/01 07:07:58;;;;;;;120.50;42.92;;;-0.80;99.90;;;;;;4996950;28;20033;-85
2023/12/01 07:10:25;;;;;;;114.70;41.95;;;-0.80;99.90;;;;;;4997090;28;20112;-85
2023/12/01 07:12:52;;;;;;;113.22;40.95;;;-0.80;99.90;;;;;;5013388;28;20037;-85
2023/12/01 07:15:21;;;;;;;111.93;42.05;;;-0.80;99.90;;;;;;4997655;28;20061;-85
2023/12/01 07:17:50;;;;;;;111.95;43.20;;;-0.80;99.90;;;;;;5013659;28;20053;-85
2023/12/01 07:20:18;;;;;;;113.80;41.95;;;-0.80;99.90;;;;;;4996904;28;20061;-85
2023/12/01 07:22:44;;;;;;;105.60;41.28;;;-0.80;99.90;;;;;;4996991;28;20674;-86
2023/12/01 07:25:11;;;;;;;113.18;42.13;;;-0.80;99.90;;;;;;4996695;28;20053;-85
2023/12/01 07:27:40;;;;;;;123.05;45.20;;;-0.80;99.90;;;;;;4996316;28;20037;-85
2023/12/01 07:30:06;;;;;;;130.85;44.45;;;-0.80;99.90;;;;;;4996999;28;20036;-85
2023/12/01 07:32:33;;;;;;;129.80;44.97;;;-0.80;99.90;;;;;;5013034;28;20030;-84
2023/12/01 07:34:58;;;;;;;124.28;44.55;;;-0.80;99.90;;;;;;4997422;28;20026;-85
2023/12/01 07:37:25;;;;;;;111.35;43.15;;;-0.80;99.90;;;;;;5013394;28;20037;-85
2023/12/01 07:39:51;;;;;;;118.13;43.28;;;-0.80;99.90;;;;;;4997366;28;20042;-85
2023/12/01 07:42:17;;;;;;;122.63;44.38;;;-0.80;99.90;;;;;;5014069;28;20084;-85
2023/12/01 07:44:43;;;;;;;124.45;44.65;;;-0.80;99.90;;;;;;4997847;28;20034;-85
2023/12/01 07:47:11;;;;;;;125.22;43.60;;;-0.80;99.90;;;;;;5013646;28;20037;-85
2023/12/01 07:49:38;;;;;;;117.68;45.10;;;-0.80;99.90;;;;;;5001955;28;20072;-85
2023/12/01 07:52:06;;;;;;;131.60;44.80;;;-0.80;99.90;;;;;;4997398;28;20501;-85
2023/12/01 07:54:35;;;;;;;126.32;45.70;;;-0.80;99.90;;;;;;5013430;28;20034;-85
2023/12/01 07:57:01;;;;;;;117.72;46.80;;;-0.80;99.90;;;;;;4997108;28;20065;-85
2023/12/01 07:59:27;;;;;;;143.07;56.33;;;-0.80;99.90;;;;;;5013423;28;20111;-85
2023/12/01 08:01:53;;;;;;;144.35;54.22;;;-0.80;99.90;;;;;;4996921;28;20030;-86
2023/12/01 08:04:19;;;;;;;139.98;47.90;;;-0.80;99.90;;;;;;4996426;28;20042;-85
2023/12/01 08:06:45;;;;;;;127.25;47.33;;;-0.70;99.90;;;;;;4996534;28;20040;-86
2023/12/01 08:09:16;;;;;;;128.50;50.90;;;-0.70;99.90;;;;;;4996606;28;20030;-85
2023/12/01 08:11:43;;;;;;;124.43;45.85;;;-0.60;99.90;;;;;;4996458;28;20065;-85
2023/12/01 08:14:10;;;;;;;112.28;42.67;;;-0.60;99.90;;;;;;4997531;28;20041;-85
2023/12/01 08:16:36;;;;;;;108.65;43.47;;;-0.60;99.90;;;;;;5012327;28;20034;-85
2023/12/01 08:19:03;;;;;;;108.70;42.95;;;-0.50;99.90;;;;;;5012902;28;20034;-85
2023/12/01 08:21:31;;;;;;;117.90;43.42;;;-0.50;99.90;;;;;;4995754;28;20038;-85
2023/12/01 08:23:57;;;;;;;108.82;41.00;;;-0.60;99.90;;;;;;4995595;28;20108;-85
2023/12/01 08:26:23;;;;;;;109.70;39.55;;;-0.60;99.90;;;;;;5012337;28;20037;-84
2023/12/01 08:28:49;;;;;;;103.97;40.13;;;-0.50;99.90;;;;;;4995946;28;20037;-85
2023/12/01 08:31:15;;;;;;;109.60;41.53;;;-0.50;99.90;;;;;;5012510;28;20397;-85
2023/12/01 08:33:42;;;;;;;113.03;39.65;;;-0.50;99.90;;;;;;5011769;28;20026;-85
2023/12/01 08:36:09;;;;;;;114.55;41.30;;;-0.40;99.90;;;;;;4995555;28;20044;-85
2023/12/01 08:38:35;;;;;;;106.40;39.50;;;-0.40;99.90;;;;;;5012283;28;20042;-85
2023/12/01 08:41:01;;;;;;;110.78;39.22;;;-0.40;99.90;;;;;;5016698;28;20034;-85
2023/12/01 08:43:26;;;;;;;103.15;39.00;;;-0.30;99.90;;;;;;4995393;28;20108;-85
2023/12/01 08:45:52;;;;;;;102.93;38.83;;;-0.30;99.90;;;;;;4995675;28;20030;-85
2023/12/01 08:48:18;;;;;;;90.10;36.38;;;-0.30;99.90;;;;;;5012262;28;20488;-85
2023/12/01 08:50:46;;;;;;;97.68;36.42;;;-0.30;99.90;;;;;;5012292;28;20068;-85
2023/12/01 08:53:12;;;;;;;93.97;35.72;;;-0.40;99.90;;;;;;4995698;28;20555;-86
2023/12/01 08:55:38;;;;;;;106.03;38.95;;;-0.40;99.90;;;;;;5012081;28;20493;-85
2023/12/01 08:58:03;;;;;;;93.18;37.05;;;-0.30;99.90;;;;;;5012073;28;20026;-86
2023/12/01 09:00:30;;;;;;;125.82;49.90;;;-0.30;99.90;;;;;;4995096;28;20034;-85
2023/12/01 09:02:57;;;;;;;128.18;49.72;;;-0.20;99.90;;;;;;5011008;28;20061;-85
2023/12/01 09:05:24;;;;;;;95.90;35.83;;;-0.20;99.90;;;;;;4996237;28;20497;-86
2023/12/01 09:07:50;;;;;;;85.45;33.15;;;-0.10;99.90;;;;;;4995378;28;20049;-86
2023/12/01 09:10:16;;;;;;;84.63;34.45;;;-0.10;99.90;;;;;;4994962;28;20088;-85
2023/12/01 09:12:42;;;;;;;86.95;33.65;;;0.00;99.90;;;;;;4994891;28;20425;-86
2023/12/01 09:15:10;;;;;;;78.80;31.85;;;-0.10;99.90;;;;;;5011502;28;20030;-86
2023/12/01 09:17:36;;;;;;;75.95;31.52;;;-0.10;99.90;;;;;;4994858;28;20048;-86
2023/12/01 09:20:02;;;;;;;77.80;30.83;;;0.00;99.90;;;;;;5011486;28;20030;-85
2023/12/01 09:22:28;;;;;;;95.35;34.45;;;0.00;99.90;;;;;;5012104;28;20073;-86
2023/12/01 09:24:53;;;;;;;99.13;34.38;;;0.00;99.90;;;;;;4994921;28;20069;-86
2023/12/01 09:27:19;;;;;;;95.68;34.17;;;0.00;99.90;;;;;;4994578;28;20032;-86
2023/12/01 09:29:46;;;;;;;89.70;35.72;;;0.00;99.90;;;;;;4994134;28;20034;-86
2023/12/01 09:32:11;;;;;;;101.60;40.35;;;0.00;99.90;;;;;;5010962;28;20763;-86
2023/12/01 09:34:37;;;;;;;100.38;39.22;;;0.00;99.90;;;;;;5010709;28;20030;-85
2023/12/01 09:37:03;;;;;;;80.47;33.90;;;0.00;99.90;;;;;;4994943;28;20034;-85
2023/12/01 09:39:29;;;;;;;82.15;34.20;;;0.00;99.90;;;;;;4994546;28;20034;-85
2023/12/01 09:41:55;;;;;;;66.50;28.77;;;0.10;99.90;;;;;;4994312;28;20128;-85
2023/12/01 09:44:21;;;;;;;69.88;29.25;;;0.10;99.90;;;;;;5013994;28;20041;-85
2023/12/01 09:46:52;;;;;;;76.28;31.17;;;0.20;99.90;;;;;;4994523;28;20497;-85
2023/12/01 09:49:18;;;;;;;75.35;31.42;;;0.30;99.90;;;;;;5011211;28;20030;-85
2023/12/01 09:51:44;;;;;;;67.05;28.77;;;0.20;99.90;;;;;;4994037;28;20037;-85
2023/12/01 09:54:10;;;;;;;74.78;31.85;;;0.30;99.90;;;;;;4994924;28;20030;-86
2023/12/01 09:56:42;;;;;;;72.75;29.45;;;0.30;99.90;;;;;;4997817;28;20033;-86
2023/12/01 09:59:08;;;;;;;72.85;29.42;;;0.40;99.90;;;;;;5010844;28;20041;-85
2023/12/01 10:01:34;;;;;;;74.28;30.05;;;0.40;99.90;;;;;;4994697;28;20128;-85
2023/12/01 10:03:59;;;;;;;73.97;28.05;;;0.40;99.90;;;;;;4994990;28;20124;-85
2023/12/01 10:06:26;;;;;;;68.50;29.40;;;0.40;99.90;;;;;;4994206;28;20041;-86
2023/12/01 10:08:52;;;;;;;71.72;30.23;;;0.40;99.90;;;;;;5012034;28;20034;-86
2023/12/01 10:11:19;;;;;;;71.35;28.35;;;0.40;99.90;;;;;;4994437;28;20053;-86
2023/12/01 10:13:45;;;;;;;75.00;29.45;;;0.40;99.90;;;;;;5012277;28;20112;-86
2023/12/01 10:16:11;;;;;;;75.63;30.40;;;0.40;99.90;;;;;;4998665;28;20100;-86
2023/12/01 10:18:37;;;;;;;77.25;31.90;;;0.50;99.90;;;;;;5000371;28;20049;-86
2023/12/01 10:21:03;;;;;;;74.00;29.13;;;0.60;99.90;;;;;;5015158;28;20037;-86
2023/12/01 10:23:41;;;;;;;73.65;31.20;;;0.80;99.90;;;;;;4998844;28;20117;-86
2023/12/01 10:26:07;;;;;;;73.20;29.65;;;1.00;99.90;;;;;;4998400;28;20076;-86
2023/12/01 10:28:41;;;;;;;76.30;31.67;;;1.10;99.90;;;;;;4998682;28;20042;-86
2023/12/01 10:31:07;;;;;;;93.65;40.38;;;1.20;99.90;;;;;;4998714;28;20129;-86
2023/12/01 10:33:35;;;;;;;100.00;41.63;;;1.10;99.90;;;;;;4999155;28;20064;-85
2023/12/01 10:36:08;;;;;;;73.97;29.52;;;1.10;99.90;;;;;;5002272;28;20748;-86
2023/12/01 10:38:36;;;;;;;75.90;29.17;;;1.20;99.90;;;;;;4998210;28;20496;-86
2023/12/01 10:41:03;;;;;;;70.63;28.38;;;1.30;99.90;;;;;;5014760;28;20105;-85
2023/12/01 10:43:30;;;;;;;78.90;31.33;;;1.30;99.90;;;;;;4998763;28;20049;-85
2023/12/01 10:46:05;;;;;;;75.00;33.85;;;1.40;99.90;;;;;;5018601;28;20133;-86
2023/12/01 10:48:33;;;;;;;67.57;29.92;;;1.30;99.90;;;;;;4998258;28;20033;-85
2023/12/01 10:51:03;;;;;;;76.32;33.35;;;1.20;99.90;;;;;;4998030;28;20205;-85
2023/12/01 10:53:29;;;;;;;80.88;36.80;;;1.20;99.90;;;;;;4997319;28;20116;-85
2023/12/01 10:56:00;;;;;;;92.63;39.85;;;1.10;99.90;;;;;;5014147;28;20077;-85
2023/12/01 10:58:27;;;;;;;124.88;49.78;;;1.10;99.90;;;;;;5014994;28;20121;-86
2023/12/01 11:00:57;;;;;;;97.20;40.22;;;1.30;99.90;;;;;;5013841;28;20096;-86
2023/12/01 11:03:28;;;;;;;100.47;43.25;;;1.50;99.90;;;;;;5014379;28;20026;-86
2023/12/01 11:06:04;;;;;;;82.35;35.50;;;1.80;99.90;;;;;;5018292;28;20075;-86
2023/12/01 11:08:48;;;;;;;89.07;38.95;;;1.90;99.90;;;;;;5014075;28;20041;-86
2023/12/01 11:11:23;;;;;;;92.93;36.05;;;1.70;99.90;;;;;;5017483;28;20391;-86
2023/12/01 11:14:14;;;;;;;81.63;34.85;;;1.60;99.90;;;;;;4996754;28;20044;-86
2023/12/01 11:16:40;;;;;;;68.90;26.25;;;1.40;99.90;;;;;;4996652;28;20034;-86
2023/12/01 11:19:12;;;;;;;84.05;34.50;;;1.30;99.90;;;;;;5012794;28;20500;-85
2023/12/01 11:21:44;;;;;;;125.93;51.72;;;1.20;99.90;;;;;;5013050;28;20061;-86
2023/12/01 11:24:32;;;;;;;127.15;49.95;;;1.20;99.90;;;;;;4996719;28;20084;-86
2023/12/01 11:27:05;;;;;;;83.65;33.65;;;1.10;99.90;;;;;;4996496;28;20038;-86
2023/12/01 11:29:35;;;;;;;81.90;32.92;;;1.10;99.90;;;;;;5012749;28;20123;-86
2023/12/01 11:32:35;;;;;;;63.28;26.73;;;1.00;99.90;;;;;;4995886;28;20842;-85
2023/12/01 11:35:09;;;;;;;71.03;28.77;;;0.80;99.90;;;;;;5012256;28;20786;-86
2023/12/01 11:38:01;;;;;;;74.07;31.15;;;0.70;99.90;;;;;;5013066;28;20563;-85
2023/12/01 11:40:27;;;;;;;79.43;31.00;;;0.70;99.90;;;;;;5012336;28;20034;-85
2023/12/01 11:42:55;;;;;;;80.30;30.27;;;0.60;99.90;;;;;;5000307;28;20033;-85
2023/12/01 11:45:37;;;;;;;77.55;32.03;;;0.70;99.90;;;;;;4996322;28;20038;-85
2023/12/01 11:48:09;;;;;;;65.50;27.17;;;0.70;99.90;;;;;;4996523;28;20042;-85
2023/12/01 11:50:37;;;;;;;66.82;28.33;;;0.60;99.90;;;;;;4996379;28;20042;-85
2023/12/01 11:53:03;;;;;;;57.72;25.20;;;0.60;99.90;;;;;;5012872;28;20401;-85
2023/12/01 11:55:29;;;;;;;63.78;28.42;;;0.50;99.90;;;;;;4997029;28;20026;-85
2023/12/01 11:57:55;;;;;;;71.60;32.72;;;0.50;99.90;;;;;;4996473;28;20041;-85
2023/12/01 12:00:21;;;;;;;69.68;29.73;;;0.50;99.90;;;;;;4996218;28;20033;-85
2023/12/01 12:02:47;;;;;;;72.68;30.90;;;0.50;99.90;;;;;;5012465;28;20034;-85
2023/12/01 12:05:12;;;;;;;71.13;30.17;;;0.50;99.90;;;;;;4995951;28;20032;-85
2023/12/01 12:07:38;;;;;;;63.00;26.55;;;0.50;99.90;;;;;;4995670;28;20041;-85
2023/12/01 12:10:08;;;;;;;63.83;27.30;;;0.40;99.90;;;;;;4996293;28;20033;-85
2023/12/01 12:12:34;;;;;;;61.50;26.27;;;0.50;99.90;;;;;;5012473;28;20026;-85
2023/12/01 12:15:10;;;;;;;63.53;26.38;;;0.50;99.90;;;;;;4995923;28;20040;-85
2023/12/01 12:17:37;;;;;;;64.05;27.13;;;0.40;99.90;;;;;;4996691;28;20678;-85
2023/12/01 12:20:04;;;;;;;69.55;28.15;;;0.40;99.90;;;;;;5012819;28;20056;-85
2023/12/01 12:22:30;;;;;;;65.32;27.85;;;0.30;99.90;;;;;;4996002;28;20045;-85
2023/12/01 12:24:56;;;;;;;57.20;25.40;;;0.30;99.90;;;;;;5012303;28;20108;-85
2023/12/01 12:27:21;;;;;;;61.92;27.13;;;0.40;99.90;;;;;;5012638;28;20076;-85